Time;durP1;ratioP1;P1;durP2;ratioP2;P2;SDS_P1;SDS_P2;PMS_P1;PMS_P2;Temp;Humidity;BMP_temperature;BMP_pressure;BME280_temperature;BME280_humidity;BME280_pressure;Samples;Min_cycle;Max_cycle;Signal;HPM_P1;HPM_P2
2021/12/16 00:09:23;;;;;;;20.38;11.43;;;;;;;;;;5116969;28;20047;-78
2021/12/16 00:33:41;;;;;;;18.30;11.05;;;;;;;;;;5116500;28;20119;-77
2021/12/16 00:36:08;;;;;;;19.13;10.93;;;;;;;;;;5116374;28;20046;-76
2021/12/16 00:38:35;;;;;;;17.52;10.82;;;;;;;;;;5115052;28;20024;-76
2021/12/16 00:41:01;;;;;;;16.80;10.60;;;;;;;;;;5116263;28;20024;-78
2021/12/16 00:43:46;;;;;;;18.38;11.48;;;;;;;;;;5116431;28;20024;-80
2021/12/16 00:46:32;;;;;;;15.82;9.77;;;;;;;;;;5116002;28;20051;-79
2021/12/16 00:54:27;;;;;;;15.82;9.60;;;;;;;;;;5116178;28;20002;-78
2021/12/16 00:56:59;;;;;;;17.02;10.10;;;;;;;;;;5116070;28;20023;-79
2021/12/16 00:59:31;;;;;;;17.80;11.35;;;;;;;;;;5115960;28;20032;-80
2021/12/16 01:34:52;;;;;;;16.58;9.98;;;;;;;;;;5115309;28;19998;-75
2021/12/16 01:42:41;;;;;;;16.45;9.02;;;;;;;;;;5115094;28;20023;-77
2021/12/16 01:50:49;;;;;;;13.32;7.85;;;;;;;;;;5115087;28;20036;-79
2021/12/16 01:55:44;;;;;;;18.42;10.70;;;;;;;;;;5114873;28;20078;-77
2021/12/16 01:58:17;;;;;;;15.57;9.15;;;;;;;;;;5113469;28;20030;-78
2021/12/16 02:00:56;;;;;;;14.38;8.98;;;;;;;;;;5114856;28;20125;-76
2021/12/16 02:03:27;;;;;;;13.98;9.18;;;;;;;;;;5114901;28;20027;-79
2021/12/16 02:06:02;;;;;;;13.65;9.43;;;;;;;;;;5114497;28;20027;-76
2021/12/16 02:08:33;;;;;;;16.48;9.13;;;;;;;;;;5114690;28;20059;-78
2021/12/16 02:11:16;;;;;;;15.00;10.05;;;;;;;;;;5114344;28;20032;-76
2021/12/16 02:37:58;;;;;;;14.35;8.90;;;;;;;;;;5114086;28;20031;-77
2021/12/16 02:40:31;;;;;;;12.73;8.02;;;;;;;;;;5112832;28;20106;-80
2021/12/16 02:48:35;;;;;;;13.70;7.00;;;;;;;;;;5113373;28;20091;-80
2021/12/16 02:51:07;;;;;;;14.60;9.20;;;;;;;;;;5113935;28;20024;-77
2021/12/16 02:53:38;;;;;;;14.98;9.48;;;;;;;;;;5114051;28;20065;-78
2021/12/16 02:56:07;;;;;;;14.93;8.75;;;;;;;;;;5113846;28;20016;-81
2021/12/16 02:58:36;;;;;;;15.38;9.23;;;;;;;;;;5114157;28;20470;-78
2021/12/16 03:01:06;;;;;;;13.63;8.52;;;;;;;;;;5113819;28;20165;-78
2021/12/16 03:03:34;;;;;;;15.77;9.73;;;;;;;;;;5113882;28;20028;-77
2021/12/16 03:06:02;;;;;;;14.70;9.00;;;;;;;;;;5113801;28;20462;-80
2021/12/16 03:08:29;;;;;;;17.23;8.73;;;;;;;;;;5113907;28;20114;-77
2021/12/16 03:14:00;;;;;;;12.38;7.63;;;;;;;;;;5114024;28;20055;-81
2021/12/16 03:19:28;;;;;;;13.18;8.48;;;;;;;;;;5107984;28;20466;-77
2021/12/16 03:21:58;;;;;;;10.10;5.88;;;;;;;;;;5113407;28;20465;-79
2021/12/16 03:32:16;;;;;;;12.48;7.88;;;;;;;;;;5113493;28;20067;-77
2021/12/16 03:35:04;;;;;;;12.25;7.57;;;;;;;;;;5113438;28;20062;-77
2021/12/16 03:37:31;;;;;;;11.90;7.20;;;;;;;;;;5113583;28;20023;-80
2021/12/16 03:40:00;;;;;;;10.18;6.40;;;;;;;;;;5113507;28;20024;-78
2021/12/16 03:42:29;;;;;;;13.88;7.88;;;;;;;;;;5113513;28;20066;-76
2021/12/16 03:44:59;;;;;;;10.43;6.85;;;;;;;;;;5113181;28;20082;-80
2021/12/16 03:47:35;;;;;;;10.52;6.57;;;;;;;;;;5113407;28;20039;-81
2021/12/16 03:50:05;;;;;;;10.25;5.93;;;;;;;;;;5113603;28;20027;-77
2021/12/16 03:52:31;;;;;;;10.20;6.25;;;;;;;;;;5113365;28;20424;-77
2021/12/16 03:54:58;;;;;;;11.43;6.28;;;;;;;;;;5113339;28;20027;-79
2021/12/16 03:57:25;;;;;;;10.80;6.05;;;;;;;;;;5113318;28;20043;-78
2021/12/16 03:59:52;;;;;;;10.40;6.28;;;;;;;;;;5114267;28;20026;-80
2021/12/16 04:02:29;;;;;;;9.80;6.95;;;;;;;;;;5117113;28;20028;-77
2021/12/16 04:04:59;;;;;;;9.65;6.03;;;;;;;;;;5116995;28;20026;-78
2021/12/16 04:07:27;;;;;;;10.15;5.82;;;;;;;;;;5116710;28;20479;-80
2021/12/16 04:09:53;;;;;;;12.18;6.85;;;;;;;;;;5116923;28;20059;-78
2021/12/16 04:12:21;;;;;;;9.68;6.68;;;;;;;;;;5116931;28;20102;-77
2021/12/16 04:14:52;;;;;;;10.85;6.38;;;;;;;;;;5116864;27;20107;-77
2021/12/16 04:17:20;;;;;;;8.98;6.05;;;;;;;;;;5116964;28;20023;-78
2021/12/16 04:19:46;;;;;;;11.43;6.13;;;;;;;;;;5116701;28;20026;-77
2021/12/16 04:22:17;;;;;;;9.10;6.20;;;;;;;;;;5116894;28;20073;-78
2021/12/16 04:24:44;;;;;;;10.95;6.22;;;;;;;;;;5116727;28;20072;-75
2021/12/16 04:27:10;;;;;;;8.80;5.18;;;;;;;;;;5116680;28;20061;-77
2021/12/16 04:29:40;;;;;;;8.40;5.82;;;;;;;;;;5116526;28;20028;-79
2021/12/16 04:32:07;;;;;;;9.13;5.38;;;;;;;;;;5116591;28;20027;-78
2021/12/16 04:34:33;;;;;;;12.02;6.45;;;;;;;;;;5116390;28;20024;-76
2021/12/16 04:37:02;;;;;;;12.57;6.38;;;;;;;;;;5116689;28;20023;-75
2021/12/16 04:39:31;;;;;;;10.10;5.78;;;;;;;;;;5116352;28;20031;-78
2021/12/16 04:41:58;;;;;;;9.73;6.15;;;;;;;;;;5116464;28;20027;-76
2021/12/16 04:44:25;;;;;;;11.05;6.40;;;;;;;;;;5114766;28;20080;-78
2021/12/16 04:46:51;;;;;;;12.65;6.78;;;;;;;;;;5115919;28;20042;-78
2021/12/16 04:49:18;;;;;;;12.88;6.80;;;;;;;;;;5116239;28;20024;-82
2021/12/16 04:51:45;;;;;;;11.48;7.05;;;;;;;;;;5116177;28;20027;-77
2021/12/16 04:54:12;;;;;;;13.07;5.75;;;;;;;;;;5116216;28;20024;-77
2021/12/16 04:56:38;;;;;;;12.23;7.68;;;;;;;;;;5116126;28;20031;-77
2021/12/16 05:01:55;;;;;;;11.32;7.50;;;;;;;;;;5116299;28;20043;-74
2021/12/16 05:04:21;;;;;;;9.15;6.30;;;;;;;;;;5116074;28;20095;-77
2021/12/16 05:06:48;;;;;;;11.57;6.82;;;;;;;;;;5115980;28;20063;-76
2021/12/16 05:09:42;;;;;;;10.70;6.10;;;;;;;;;;5115900;28;20482;-81
2021/12/16 05:12:02;;;;;;;10.93;6.65;;;;;;;;;;5114819;28;20093;-78
2021/12/16 05:14:31;;;;;;;10.30;5.93;;;;;;;;;;5115532;28;20077;-76
2021/12/16 05:16:58;;;;;;;13.65;7.03;;;;;;;;;;5115719;28;20020;-77
2021/12/16 05:19:24;;;;;;;15.80;9.00;;;;;;;;;;5113843;28;20046;-76
2021/12/16 05:24:15;;;;;;;12.70;8.50;;;;;;;;;;5115770;28;20026;-75
2021/12/16 05:24:46;;;;;;;11.68;7.65;;;;;;;;;;5115160;28;20474;-77
2021/12/16 05:27:12;;;;;;;10.73;6.13;;;;;;;;;;5115413;28;20081;-78
2021/12/16 05:29:39;;;;;;;13.13;8.73;;;;;;;;;;5114162;28;20023;-75
2021/12/16 05:32:06;;;;;;;11.73;6.55;;;;;;;;;;5115694;28;20063;-77
2021/12/16 05:34:32;;;;;;;15.30;8.90;;;;;;;;;;5115413;28;20546;-76
2021/12/16 05:36:59;;;;;;;11.27;7.35;;;;;;;;;;5113835;28;20023;-74
2021/12/16 05:39:26;;;;;;;14.27;7.90;;;;;;;;;;5115423;28;20080;-76
2021/12/16 05:41:53;;;;;;;10.65;6.47;;;;;;;;;;5115741;28;20027;-78
2021/12/16 05:44:19;;;;;;;9.60;5.78;;;;;;;;;;5115080;28;20028;-75
2021/12/16 05:46:46;;;;;;;11.05;7.13;;;;;;;;;;5115062;28;20068;-77
2021/12/16 05:49:13;;;;;;;13.07;7.80;;;;;;;;;;5115293;28;20114;-76
2021/12/16 05:51:42;;;;;;;11.23;6.65;;;;;;;;;;5115098;27;20024;-75
2021/12/16 05:54:08;;;;;;;12.55;5.85;;;;;;;;;;5115115;28;20038;-76
2021/12/16 05:56:35;;;;;;;12.30;7.85;;;;;;;;;;5115189;28;20106;-77
2021/12/16 05:59:08;;;;;;;11.68;7.40;;;;;;;;;;5114574;28;20103;-76
2021/12/16 06:01:39;;;;;;;13.85;8.63;;;;;;;;;;5114790;28;20024;-75
2021/12/16 06:04:05;;;;;;;10.85;6.70;;;;;;;;;;5114797;28;20031;-75
2021/12/16 06:06:34;;;;;;;12.70;6.88;;;;;;;;;;5113736;28;20047;-76
2021/12/16 06:09:03;;;;;;;12.40;7.03;;;;;;;;;;5114533;28;20057;-78
2021/12/16 06:11:31;;;;;;;8.82;5.47;;;;;;;;;;5114517;28;20027;-79
2021/12/16 06:14:05;;;;;;;11.70;7.53;;;;;;;;;;5114690;28;20030;-75
2021/12/16 06:27:34;;;;;;;10.13;6.63;;;;;;;;;;5113925;28;20042;-78
2021/12/16 06:30:05;;;;;;;9.18;6.65;;;;;;;;;;5111884;28;20385;-81
2021/12/16 06:32:31;;;;;;;11.38;6.72;;;;;;;;;;5113239;28;20115;-77
2021/12/16 06:34:57;;;;;;;9.32;6.43;;;;;;;;;;5113716;28;20094;-81
2021/12/16 06:37:24;;;;;;;11.18;7.28;;;;;;;;;;5110241;28;20092;-76
2021/12/16 06:39:50;;;;;;;11.10;6.47;;;;;;;;;;5112493;28;20015;-80
2021/12/16 06:42:16;;;;;;;10.52;6.53;;;;;;;;;;5111676;28;20452;-76
2021/12/16 06:44:53;;;;;;;8.82;6.18;;;;;;;;;;5104739;28;20059;-80
2021/12/16 06:47:29;;;;;;;11.57;7.10;;;;;;;;;;5092720;28;20039;-80
2021/12/16 06:49:56;;;;;;;10.93;6.07;;;;;;;;;;5109437;28;20046;-80
2021/12/16 06:52:29;;;;;;;8.43;5.85;;;;;;;;;;5111382;28;20028;-80
2021/12/16 06:57:44;;;;;;;10.23;5.22;;;;;;;;;;5111073;28;20057;-85
2021/12/16 07:00:27;;;;;;;11.07;6.35;;;;;;;;;;5111641;28;20024;-81
2021/12/16 07:03:02;;;;;;;8.30;5.20;;;;;;;;;;5111834;28;20462;-83
2021/12/16 07:05:31;;;;;;;9.40;5.30;;;;;;;;;;5111784;28;20773;-78
2021/12/16 07:07:57;;;;;;;8.55;5.10;;;;;;;;;;5111597;28;20035;-80
2021/12/16 07:10:25;;;;;;;8.60;5.55;;;;;;;;;;5111856;28;20045;-77
2021/12/16 07:12:53;;;;;;;8.95;5.95;;;;;;;;;;5109609;28;20042;-78
2021/12/16 07:15:22;;;;;;;10.68;7.15;;;;;;;;;;5111389;28;20118;-82
2021/12/16 07:17:48;;;;;;;10.15;6.38;;;;;;;;;;5112127;28;20394;-80
2021/12/16 07:20:16;;;;;;;9.52;6.55;;;;;;;;;;5111915;28;20774;-79
2021/12/16 07:22:45;;;;;;;9.88;6.55;;;;;;;;;;5111090;28;20110;-79
2021/12/16 07:25:13;;;;;;;9.05;5.38;;;;;;;;;;5110400;28;20089;-80
2021/12/16 07:27:39;;;;;;;9.98;6.85;;;;;;;;;;5111501;28;20687;-79
2021/12/16 07:30:07;;;;;;;10.65;6.72;;;;;;;;;;5110492;28;20027;-83
2021/12/16 07:32:35;;;;;;;11.55;6.90;;;;;;;;;;5109521;28;20076;-82
2021/12/16 07:35:01;;;;;;;8.07;5.20;;;;;;;;;;5115106;27;20413;-78
2021/12/16 07:37:27;;;;;;;9.75;5.53;;;;;;;;;;5113865;28;20031;-80
2021/12/16 07:39:53;;;;;;;8.38;5.25;;;;;;;;;;5114658;28;20028;-79
2021/12/16 07:45:05;;;;;;;7.13;4.93;;;;;;;;;;5114657;27;20176;-80
2021/12/16 07:47:31;;;;;;;6.60;4.93;;;;;;;;;;5114381;27;20027;-84
2021/12/16 07:49:57;;;;;;;8.40;5.57;;;;;;;;;;5114759;28;20057;-79
2021/12/16 07:52:28;;;;;;;8.43;5.10;;;;;;;;;;5114243;27;20036;-86
2021/12/16 07:54:54;;;;;;;8.07;3.95;;;;;;;;;;5113978;28;20397;-80
2021/12/16 07:57:21;;;;;;;8.05;4.63;;;;;;;;;;5111787;28;20019;-81
2021/12/16 07:59:49;;;;;;;7.88;4.43;;;;;;;;;;5114713;28;20327;-79
2021/12/16 08:02:15;;;;;;;9.60;5.25;;;;;;;;;;5115017;27;20035;-82
2021/12/16 08:04:44;;;;;;;7.22;5.35;;;;;;;;;;5113553;27;20027;-79
2021/12/16 08:07:14;;;;;;;8.73;5.40;;;;;;;;;;5114361;28;20433;-80
2021/12/16 08:09:41;;;;;;;13.07;6.18;;;;;;;;;;5114122;28;20023;-80
2021/12/16 08:12:08;;;;;;;10.13;6.03;;;;;;;;;;5114847;28;20031;-79
2021/12/16 08:14:35;;;;;;;7.72;4.88;;;;;;;;;;5114064;28;20035;-82
2021/12/16 08:17:01;;;;;;;7.85;4.93;;;;;;;;;;5115046;28;20028;-80
2021/12/16 08:19:27;;;;;;;7.20;5.13;;;;;;;;;;5113908;28;20027;-81
2021/12/16 08:21:56;;;;;;;8.20;5.40;;;;;;;;;;5114365;28;20028;-81
2021/12/16 08:24:25;;;;;;;9.45;5.75;;;;;;;;;;5113730;28;20106;-82
2021/12/16 08:26:51;;;;;;;8.63;4.97;;;;;;;;;;5111947;28;20039;-79
2021/12/16 08:29:18;;;;;;;8.55;4.97;;;;;;;;;;5113429;28;20024;-74
2021/12/16 08:31:44;;;;;;;6.93;4.63;;;;;;;;;;5115895;27;20019;-78
2021/12/16 08:34:11;;;;;;;6.47;4.07;;;;;;;;;;5115229;27;20363;-78
2021/12/16 08:36:38;;;;;;;7.03;4.70;;;;;;;;;;5114073;28;20084;-80
2021/12/16 08:39:07;;;;;;;7.78;4.72;;;;;;;;;;5114119;28;20076;-78
2021/12/16 08:41:35;;;;;;;5.30;4.00;;;;;;;;;;5114482;28;20050;-80
2021/12/16 08:44:04;;;;;;;5.05;3.75;;;;;;;;;;5114067;28;20028;-81
2021/12/16 08:46:34;;;;;;;6.18;4.15;;;;;;;;;;5112897;28;20056;-81
2021/12/16 08:49:00;;;;;;;6.18;3.95;;;;;;;;;;5114300;28;20031;-78
2021/12/16 08:51:31;;;;;;;6.10;3.63;;;;;;;;;;5113905;28;20032;-80
2021/12/16 08:54:00;;;;;;;6.63;4.15;;;;;;;;;;5113572;28;20027;-80
2021/12/16 08:56:27;;;;;;;5.32;4.10;;;;;;;;;;5113715;28;20168;-76
2021/12/16 08:59:00;;;;;;;5.30;3.63;;;;;;;;;;5113727;28;20023;-79
2021/12/16 09:01:28;;;;;;;5.20;3.50;;;;;;;;;;5112971;28;20039;-76
2021/12/16 09:03:55;;;;;;;4.63;3.10;;;;;;;;;;5113868;28;20032;-77
2021/12/16 09:06:24;;;;;;;6.40;4.10;;;;;;;;;;5113561;28;20445;-81
2021/12/16 09:08:51;;;;;;;4.32;3.47;;;;;;;;;;5114021;28;20031;-82
2021/12/16 09:11:22;;;;;;;6.82;4.93;;;;;;;;;;5113174;28;20023;-76
2021/12/16 09:13:50;;;;;;;10.88;6.68;;;;;;;;;;5113435;28;20039;-75
2021/12/16 09:16:19;;;;;;;6.28;4.20;;;;;;;;;;5113032;28;20076;-77
2021/12/16 09:18:45;;;;;;;8.70;4.90;;;;;;;;;;5112848;28;20035;-75
2021/12/16 09:21:13;;;;;;;6.60;3.78;;;;;;;;;;5113391;28;20031;-75
2021/12/16 09:23:44;;;;;;;6.55;4.15;;;;;;;;;;5112700;28;20378;-76
2021/12/16 09:26:12;;;;;;;5.85;3.22;;;;;;;;;;5113489;28;20038;-79
2021/12/16 09:28:39;;;;;;;5.75;3.67;;;;;;;;;;5113860;28;20106;-78
2021/12/16 09:31:10;;;;;;;8.98;5.88;;;;;;;;;;5114646;28;20035;-83
2021/12/16 09:33:41;;;;;;;7.35;5.45;;;;;;;;;;5112829;28;20030;-80
2021/12/16 09:36:08;;;;;;;10.00;6.70;;;;;;;;;;5114368;28;20027;-79
2021/12/16 09:38:34;;;;;;;8.20;4.57;;;;;;;;;;5115005;28;20081;-80
2021/12/16 09:41:00;;;;;;;8.57;5.28;;;;;;;;;;5111525;28;20066;-81
2021/12/16 09:43:31;;;;;;;5.45;4.00;;;;;;;;;;5112291;28;20035;-82
2021/12/16 09:46:02;;;;;;;11.00;7.00;;;;;;;;;;5112015;28;20551;-80
2021/12/16 09:48:28;;;;;;;9.20;5.05;;;;;;;;;;5112930;28;20474;-80
2021/12/16 09:50:55;;;;;;;8.27;5.25;;;;;;;;;;5112629;28;20036;-80
2021/12/16 09:53:21;;;;;;;6.78;4.30;;;;;;;;;;5112562;28;20020;-83
2021/12/16 09:55:57;;;;;;;10.50;6.00;;;;;;;;;;5112426;28;20020;-75
2021/12/16 09:58:24;;;;;;;6.68;3.97;;;;;;;;;;5112530;28;20016;-80
2021/12/16 10:00:50;;;;;;;10.27;6.32;;;;;;;;;;5112161;28;20051;-81
2021/12/16 10:03:17;;;;;;;9.55;5.47;;;;;;;;;;5112632;28;20039;-80
2021/12/16 10:05:43;;;;;;;7.70;5.32;;;;;;;;;;5110699;28;20034;-83
2021/12/16 10:08:10;;;;;;;6.10;4.57;;;;;;;;;;5112258;28;20036;-79
2021/12/16 10:10:37;;;;;;;6.90;4.40;;;;;;;;;;5112280;28;20085;-84
2021/12/16 10:13:04;;;;;;;6.70;4.32;;;;;;;;;;5112097;28;20117;-77
2021/12/16 10:18:00;;;;;;;6.47;4.13;;;;;;;;;;5112426;28;20083;-82
2021/12/16 10:20:31;;;;;;;6.97;4.22;;;;;;;;;;5112004;28;20490;-75
2021/12/16 10:23:24;;;;;;;5.35;3.80;;;;;;;;;;5112082;28;20064;-78
2021/12/16 10:25:52;;;;;;;9.23;3.50;;;;;;;;;;5110408;28;20042;-80
2021/12/16 10:28:26;;;;;;;6.53;4.40;;;;;;;;;;5111857;28;20047;-76
2021/12/16 10:30:52;;;;;;;7.40;4.32;;;;;;;;;;5111577;28;20390;-79
2021/12/16 10:33:40;;;;;;;6.80;4.78;;;;;;;;;;5110505;28;20036;-79
2021/12/16 10:36:12;;;;;;;6.80;4.00;;;;;;;;;;5110486;28;20421;-79
2021/12/16 10:38:41;;;;;;;14.93;8.68;;;;;;;;;;5110213;28;20432;-79
2021/12/16 10:41:09;;;;;;;11.77;6.88;;;;;;;;;;5111640;28;20031;-80
2021/12/16 10:43:53;;;;;;;7.65;4.47;;;;;;;;;;5109686;28;20030;-84
2021/12/16 10:46:22;;;;;;;5.03;3.75;;;;;;;;;;5110871;28;20058;-85
2021/12/16 10:48:52;;;;;;;5.80;3.60;;;;;;;;;;5111451;28;20436;-86
2021/12/16 10:51:27;;;;;;;7.90;4.55;;;;;;;;;;5111434;28;20478;-76
2021/12/16 10:53:54;;;;;;;10.45;4.68;;;;;;;;;;5111233;28;20028;-78
2021/12/16 10:56:23;;;;;;;5.15;4.03;;;;;;;;;;5111393;28;20054;-79
2021/12/16 10:58:57;;;;;;;5.60;3.67;;;;;;;;;;5111046;28;20034;-84
2021/12/16 11:01:30;;;;;;;5.40;3.25;;;;;;;;;;5109524;28;20551;-82
2021/12/16 11:03:56;;;;;;;6.47;3.67;;;;;;;;;;5108873;28;20055;-81
2021/12/16 11:06:26;;;;;;;4.38;3.50;;;;;;;;;;5109825;28;20075;-81
2021/12/16 11:08:53;;;;;;;6.63;3.95;;;;;;;;;;5111518;28;20089;-79
2021/12/16 11:11:26;;;;;;;5.65;3.47;;;;;;;;;;5111293;28;20031;-80
2021/12/16 11:14:02;;;;;;;7.17;5.03;;;;;;;;;;5111204;28;20031;-80
2021/12/16 11:16:36;;;;;;;7.85;5.95;;;;;;;;;;5110509;28;20027;-83
2021/12/16 11:19:06;;;;;;;6.97;4.73;;;;;;;;;;5109910;28;20034;-85
2021/12/16 11:21:39;;;;;;;9.20;4.93;;;;;;;;;;5109592;28;20054;-79
2021/12/16 11:24:22;;;;;;;6.28;4.75;;;;;;;;;;5110814;28;20031;-82
2021/12/16 11:26:48;;;;;;;8.00;5.32;;;;;;;;;;5111442;28;20039;-86
2021/12/16 11:29:14;;;;;;;6.00;4.38;;;;;;;;;;5110686;28;20023;-77
2021/12/16 11:31:43;;;;;;;4.28;3.78;;;;;;;;;;5111608;28;20089;-76
2021/12/16 11:34:13;;;;;;;9.18;6.35;;;;;;;;;;5110360;28;20035;-85
2021/12/16 11:36:44;;;;;;;7.90;4.72;;;;;;;;;;5109161;28;20039;-82
2021/12/16 11:39:18;;;;;;;7.85;5.70;;;;;;;;;;5086507;28;20026;-84
2021/12/16 11:41:44;;;;;;;7.53;5.75;;;;;;;;;;5110739;28;20027;-79
2021/12/16 11:44:13;;;;;;;9.07;5.43;;;;;;;;;;5110361;28;20020;-81
2021/12/16 11:46:58;;;;;;;8.45;5.30;;;;;;;;;;5110772;28;20063;-86
2021/12/16 11:49:31;;;;;;;5.60;4.18;;;;;;;;;;5110089;28;20031;-77
2021/12/16 11:52:05;;;;;;;7.80;5.65;;;;;;;;;;5109522;28;20024;-85
2021/12/16 11:54:36;;;;;;;7.97;5.90;;;;;;;;;;5110962;28;20100;-79
2021/12/16 11:57:02;;;;;;;5.63;4.30;;;;;;;;;;5111808;28;20809;-79
2021/12/16 11:59:37;;;;;;;9.82;5.55;;;;;;;;;;5112107;28;20035;-82
2021/12/16 12:02:04;;;;;;;8.15;5.90;;;;;;;;;;5110188;28;20019;-82
2021/12/16 12:04:36;;;;;;;9.05;5.93;;;;;;;;;;5110223;28;20027;-83
2021/12/16 12:07:09;;;;;;;10.18;6.97;;;;;;;;;;5110615;28;20036;-77
2021/12/16 12:09:38;;;;;;;9.98;7.57;;;;;;;;;;5110856;28;20046;-84
2021/12/16 12:12:07;;;;;;;11.13;7.97;;;;;;;;;;5121521;28;20019;-82
2021/12/16 12:14:35;;;;;;;10.23;6.90;;;;;;;;;;5131885;28;20038;-83
2021/12/16 12:17:09;;;;;;;12.95;8.27;;;;;;;;;;5132222;28;20026;-81
2021/12/16 12:19:41;;;;;;;10.05;7.25;;;;;;;;;;5116047;27;20079;-78
2021/12/16 12:22:08;;;;;;;11.00;7.05;;;;;;;;;;5112306;28;20024;-80
2021/12/16 12:24:37;;;;;;;10.95;8.35;;;;;;;;;;5114829;27;20076;-80
2021/12/16 12:27:25;;;;;;;12.27;7.43;;;;;;;;;;5134502;27;20072;-81
2021/12/16 12:30:23;;;;;;;12.82;8.43;;;;;;;;;;5118267;27;20118;-82
2021/12/16 12:32:51;;;;;;;14.80;9.55;;;;;;;;;;5086917;28;20048;-83
2021/12/16 12:35:35;;;;;;;10.95;7.07;;;;;;;;;;5113412;28;20110;-81
2021/12/16 12:38:02;;;;;;;9.52;6.43;;;;;;;;;;5114625;28;20020;-79
2021/12/16 12:40:30;;;;;;;9.35;5.75;;;;;;;;;;5113126;28;20058;-80
2021/12/16 12:43:04;;;;;;;8.50;5.90;;;;;;;;;;5095392;28;20070;-82
2021/12/16 12:45:34;;;;;;;9.55;6.78;;;;;;;;;;5094393;28;20077;-80
2021/12/16 12:48:01;;;;;;;9.15;6.85;;;;;;;;;;5094922;28;20043;-80
2021/12/16 12:50:48;;;;;;;9.38;7.15;;;;;;;;;;5094989;28;20020;-83
2021/12/16 12:53:23;;;;;;;8.25;7.20;;;;;;;;;;5093247;28;20020;-83
2021/12/16 12:55:50;;;;;;;;;;;;;;;;;;5096253;28;20032;-81
2021/12/16 12:58:21;;;;;;;12.20;7.75;;;;;;;;;;5097935;28;19904;-82
2021/12/16 13:00:53;;;;;;;9.23;6.63;;;;;;;;;;5097336;28;20479;-82
2021/12/16 13:03:39;;;;;;;10.15;7.43;;;;;;;;;;5093556;28;20028;-78
2021/12/16 13:06:17;;;;;;;9.40;6.40;;;;;;;;;;5094771;28;20060;-79
2021/12/16 13:08:45;;;;;;;11.95;7.88;;;;;;;;;;5097957;28;20028;-80
2021/12/16 13:11:14;;;;;;;17.65;11.05;;;;;;;;;;5111919;28;20120;-78
2021/12/16 13:14:07;;;;;;;12.73;8.32;;;;;;;;;;5115509;28;20031;-80
2021/12/16 13:27:48;;;;;;;15.05;10.88;;;;;;;;;;5115033;28;20446;-77
2021/12/16 13:30:22;;;;;;;10.68;8.50;;;;;;;;;;5112367;28;20055;-78
2021/12/16 13:33:15;;;;;;;11.10;9.00;;;;;;;;;;5114538;28;20028;-78
2021/12/16 13:36:00;;;;;;;10.18;7.15;;;;;;;;;;5114455;28;20019;-84
2021/12/16 13:38:29;;;;;;;;;;;;;;;;;;5113570;28;20064;-81
2021/12/16 13:41:06;;;;;;;20.30;10.07;;;;;;;;;;5113279;28;20314;-80
2021/12/16 13:43:32;;;;;;;17.10;10.50;;;;;;;;;;5114063;28;20111;-81
2021/12/16 13:46:10;;;;;;;16.15;10.30;;;;;;;;;;5111079;28;20510;-80
2021/12/16 14:09:32;;;;;;;9.18;6.43;;;;;;;;;;5114049;28;20577;-82
2021/12/16 14:23:08;;;;;;;9.57;7.90;;;;;;;;;;5113259;28;20034;-81
2021/12/16 14:26:14;;;;;;;14.38;8.88;;;;;;;;;;5111731;28;20111;-84
2021/12/16 14:37:11;;;;;;;8.82;6.93;;;;;;;;;;5112626;28;20497;-81
2021/12/16 14:40:05;;;;;;;10.27;7.03;;;;;;;;;;5111153;28;20058;-80
2021/12/16 14:45:37;;;;;;;8.35;6.63;;;;;;;;;;5109935;28;20130;-79
2021/12/16 14:48:28;;;;;;;8.48;6.03;;;;;;;;;;5109989;28;20061;-80
2021/12/16 14:51:09;;;;;;;9.88;7.22;;;;;;;;;;5113318;28;20492;-79
2021/12/16 14:53:46;;;;;;;8.45;6.45;;;;;;;;;;5112046;28;20097;-81
2021/12/16 14:56:13;;;;;;;6.70;4.97;;;;;;;;;;5113010;28;20023;-80
2021/12/16 14:58:41;;;;;;;8.05;6.00;;;;;;;;;;5112921;28;20046;-81
2021/12/16 15:01:11;;;;;;;7.35;5.60;;;;;;;;;;5113423;28;20047;-82
2021/12/16 15:03:42;;;;;;;8.13;7.00;;;;;;;;;;5113012;28;20385;-83
2021/12/16 15:06:11;;;;;;;7.85;5.70;;;;;;;;;;5113610;28;20042;-79
2021/12/16 15:08:49;;;;;;;8.80;6.20;;;;;;;;;;5113032;28;20036;-80
2021/12/16 15:11:25;;;;;;;8.57;6.28;;;;;;;;;;5113015;28;20378;-85
2021/12/16 15:13:59;;;;;;;9.05;6.78;;;;;;;;;;5115020;28;20531;-77
2021/12/16 15:16:40;;;;;;;;;;;;;;;;;;5117463;28;20023;-80
2021/12/16 15:43:01;;;;;;;10.25;6.80;;;;;;;;;;5114634;28;20067;-77
2021/12/16 15:45:27;;;;;;;8.10;6.05;;;;;;;;;;5114557;28;20068;-79
2021/12/16 15:48:04;;;;;;;12.40;8.00;;;;;;;;;;5115133;28;20024;-80
2021/12/16 15:50:33;;;;;;;10.43;7.53;;;;;;;;;;5111268;28;20032;-80
2021/12/16 15:53:00;;;;;;;13.15;9.30;;;;;;;;;;5113017;28;20023;-82
2021/12/16 15:55:32;;;;;;;10.52;8.00;;;;;;;;;;5113360;28;20085;-86
2021/12/16 15:57:59;;;;;;;10.30;7.25;;;;;;;;;;5116565;28;20379;-67
2021/12/16 16:00:26;;;;;;;11.82;8.30;;;;;;;;;;5096235;28;20024;-79
2021/12/16 16:02:57;;;;;;;11.35;8.13;;;;;;;;;;5097146;28;20027;-82
2021/12/16 16:05:24;;;;;;;13.00;9.73;;;;;;;;;;5097418;28;20028;-84
2021/12/16 16:07:57;;;;;;;11.05;8.95;;;;;;;;;;5095630;28;20047;-81
2021/12/16 16:10:23;;;;;;;11.05;7.38;;;;;;;;;;5097048;28;20127;-82
2021/12/16 16:12:52;;;;;;;10.30;7.30;;;;;;;;;;5097464;28;20028;-81
2021/12/16 16:15:20;;;;;;;13.32;9.25;;;;;;;;;;5096733;28;20047;-85
2021/12/16 16:20:34;;;;;;;14.70;9.90;;;;;;;;;;5096922;28;20054;-78
2021/12/16 16:23:05;;;;;;;17.33;10.95;;;;;;;;;;5096725;28;20027;-87
2021/12/16 16:25:31;;;;;;;15.70;9.77;;;;;;;;;;5096774;28;20161;-88
2021/12/16 16:27:57;;;;;;;12.75;9.68;;;;;;;;;;5096582;28;20036;-82
2021/12/16 16:30:24;;;;;;;12.05;7.65;;;;;;;;;;5096656;28;20382;-81
2021/12/16 16:33:09;;;;;;;16.25;11.40;;;;;;;;;;5096652;28;20024;-81
2021/12/16 16:35:36;;;;;;;14.25;9.82;;;;;;;;;;5096927;28;20164;-78
2021/12/16 16:38:10;;;;;;;14.05;10.15;;;;;;;;;;5096566;28;20581;-80
2021/12/16 16:40:41;;;;;;;12.20;9.63;;;;;;;;;;5098129;28;20028;-80
2021/12/16 16:43:25;;;;;;;13.32;9.48;;;;;;;;;;5097283;28;20513;-81
2021/12/16 16:45:53;;;;;;;11.88;8.73;;;;;;;;;;5097588;28;20048;-81
2021/12/16 16:51:07;;;;;;;11.80;9.00;;;;;;;;;;5096573;28;20075;-81
2021/12/16 16:53:43;;;;;;;12.95;9.10;;;;;;;;;;5095999;28;20031;-81
2021/12/16 16:56:09;;;;;;;12.68;8.60;;;;;;;;;;5095928;28;20032;-80
2021/12/16 16:58:35;;;;;;;12.80;9.68;;;;;;;;;;5094909;28;20024;-82
2021/12/16 17:01:02;;;;;;;14.93;10.07;;;;;;;;;;5096177;28;20028;-78
2021/12/16 17:03:28;;;;;;;12.05;8.45;;;;;;;;;;5095970;28;20053;-76
2021/12/16 17:05:57;;;;;;;13.80;9.98;;;;;;;;;;5095747;28;20471;-77
2021/12/16 17:08:26;;;;;;;14.65;10.40;;;;;;;;;;5094967;28;20035;-79
2021/12/16 17:10:59;;;;;;;12.80;9.27;;;;;;;;;;5095458;28;20049;-81
2021/12/16 17:13:58;;;;;;;12.40;9.07;;;;;;;;;;5095602;28;20534;-78
2021/12/16 17:19:15;;;;;;;11.98;8.88;;;;;;;;;;5114862;28;20169;-82
2021/12/16 17:21:46;;;;;;;13.90;10.32;;;;;;;;;;5113406;28;20023;-82
2021/12/16 17:24:18;;;;;;;12.63;8.13;;;;;;;;;;5114616;28;20029;-79
2021/12/16 17:26:53;;;;;;;14.20;9.98;;;;;;;;;;5114775;28;20034;-79
2021/12/16 17:29:27;;;;;;;12.30;8.45;;;;;;;;;;5114620;28;20020;-81
2021/12/16 17:31:57;;;;;;;11.45;8.68;;;;;;;;;;5114664;28;20390;-77
2021/12/16 17:34:27;;;;;;;13.70;8.95;;;;;;;;;;5114568;28;20024;-78
2021/12/16 17:36:54;;;;;;;11.82;8.35;;;;;;;;;;5114627;28;20035;-79
2021/12/16 17:39:23;;;;;;;12.88;9.73;;;;;;;;;;5114554;28;20428;-79
2021/12/16 17:41:57;;;;;;;14.10;9.55;;;;;;;;;;5114889;28;20037;-76
2021/12/16 17:44:27;;;;;;;13.93;9.68;;;;;;;;;;5116209;28;20051;-79
2021/12/16 17:47:03;;;;;;;16.45;10.43;;;;;;;;;;5114850;28;20031;-82
2021/12/16 17:49:32;;;;;;;11.38;8.98;;;;;;;;;;5114545;28;20019;-78
2021/12/16 17:52:04;;;;;;;14.23;10.13;;;;;;;;;;5114357;28;20110;-84
2021/12/16 17:54:30;;;;;;;17.05;12.38;;;;;;;;;;5113773;28;20463;-81
2021/12/16 17:56:59;;;;;;;17.00;11.85;;;;;;;;;;5114343;28;20084;-81
2021/12/16 17:59:35;;;;;;;16.55;11.10;;;;;;;;;;5114470;28;20020;-76
2021/12/16 18:02:02;;;;;;;15.02;9.88;;;;;;;;;;5114163;28;20036;-78
2021/12/16 18:04:30;;;;;;;18.67;11.82;;;;;;;;;;5114019;28;20032;-82
2021/12/16 18:07:01;;;;;;;13.98;10.77;;;;;;;;;;5113952;28;20040;-78
2021/12/16 18:09:30;;;;;;;11.57;8.00;;;;;;;;;;5113868;28;20027;-79
2021/12/16 18:12:05;;;;;;;14.05;9.70;;;;;;;;;;5112781;28;20024;-81
2021/12/16 18:14:36;;;;;;;11.45;9.25;;;;;;;;;;5113730;28;20031;-79
2021/12/16 18:17:05;;;;;;;13.55;8.90;;;;;;;;;;5113684;28;20031;-76
2021/12/16 18:19:31;;;;;;;15.23;9.35;;;;;;;;;;5113612;28;20529;-80
2021/12/16 18:21:59;;;;;;;14.75;9.65;;;;;;;;;;5113809;28;20024;-79
2021/12/16 18:24:32;;;;;;;16.73;11.55;;;;;;;;;;5113400;28;20061;-82
2021/12/16 18:26:58;;;;;;;13.13;9.25;;;;;;;;;;5114669;28;20039;-80
2021/12/16 18:29:25;;;;;;;13.93;10.02;;;;;;;;;;5114781;28;20027;-83
2021/12/16 18:31:52;;;;;;;12.63;8.93;;;;;;;;;;5114312;28;20501;-81
2021/12/16 18:34:19;;;;;;;15.50;10.45;;;;;;;;;;5113308;28;20026;-82
2021/12/16 18:36:47;;;;;;;13.40;10.93;;;;;;;;;;5114868;28;20102;-76
2021/12/16 18:39:16;;;;;;;16.00;10.55;;;;;;;;;;5113021;28;20118;-77
2021/12/16 18:41:55;;;;;;;12.77;9.43;;;;;;;;;;5114257;28;20035;-77
2021/12/16 18:44:48;;;;;;;14.18;10.20;;;;;;;;;;5114087;28;20474;-83
2021/12/16 18:47:27;;;;;;;15.60;9.80;;;;;;;;;;5083424;28;20039;-80
2021/12/16 18:49:59;;;;;;;14.38;9.77;;;;;;;;;;5114053;28;20101;-80